createdAt,value
2017-07-20T00:04:09.811Z,76.80
2017-07-20T00:09:11.514Z,78.20
2017-07-20T00:14:13.203Z,78.10
2017-07-20T00:19:15.799Z,77.70
2017-07-20T00:24:17.458Z,78.50
2017-07-20T00:29:19.128Z,80.30
2017-07-20T00:34:20.799Z,82.20
2017-07-20T00:39:23.001Z,82.50
2017-07-20T00:44:24.761Z,79.50
2017-07-20T00:49:26.449Z,78.90
2017-07-20T00:54:29.140Z,71.10
2017-07-20T00:59:31.399Z,64.40
2017-07-20T01:04:33.989Z,65.20
2017-07-20T01:09:36.371Z,69.50
2017-07-20T01:14:38.540Z,69.50
2017-07-20T01:19:40.908Z,68.20
2017-07-20T01:24:42.616Z,68.70
2017-07-20T01:29:44.322Z,68.90
2017-07-20T01:34:46.440Z,70.10
2017-07-20T01:39:48.256Z,71.30
2017-07-20T01:44:50.692Z,70.10
2017-07-20T01:49:52.954Z,73.00
2017-07-20T01:54:55.140Z,79.10
2017-07-20T01:59:56.812Z,76.70
2017-07-20T02:04:58.456Z,78.40
2017-07-20T02:10:00.128Z,79.80
2017-07-20T02:15:02.829Z,80.20
2017-07-20T02:20:04.440Z,83.50
2017-07-20T02:25:06.692Z,92.40
2017-07-20T02:30:09.921Z,98.20
2017-07-20T02:35:11.593Z,98.20
2017-07-20T02:40:27.869Z,99.90
2017-07-20T02:45:44.579Z,99.90
2017-07-20T02:51:01.087Z,99.90
2017-07-20T02:56:03.220Z,99.90
2017-07-20T03:01:05.013Z,99.90
2017-07-20T03:06:21.970Z,99.90
2017-07-20T03:11:38.382Z,99.90
2017-07-20T03:16:55.598Z,99.90
2017-07-20T03:22:18.763Z,99.90
2017-07-20T03:27:20.424Z,99.90
2017-07-20T03:32:22.121Z,99.90
2017-07-20T03:37:23.897Z,99.90
2017-07-20T03:42:26.604Z,99.90
2017-07-20T03:47:28.200Z,99.90
2017-07-20T03:52:30.654Z,99.90
2017-07-20T03:57:32.841Z,99.90
2017-07-20T04:02:35.127Z,99.90
2017-07-20T04:07:36.920Z,99.90
2017-07-20T04:12:38.574Z,99.90
2017-07-20T04:17:40.215Z,99.90
2017-07-20T04:22:42.378Z,99.90
2017-07-20T04:27:44.175Z,82.10
2017-07-20T04:32:45.847Z,79.10
2017-07-20T04:37:47.551Z,75.60
2017-07-20T04:42:49.224Z,73.90
2017-07-20T04:47:50.896Z,74.00
2017-07-20T04:52:52.569Z,76.00
2017-07-20T04:57:54.241Z,76.70
2017-07-20T05:02:55.783Z,77.10
2017-07-20T05:07:58.669Z,77.80
2017-07-20T05:13:00.194Z,77.80
2017-07-20T05:18:01.856Z,76.50
2017-07-20T05:23:03.540Z,78.30
2017-07-20T05:28:05.212Z,77.70
2017-07-20T05:33:07.456Z,77.90
2017-07-20T05:38:09.173Z,78.40
2017-07-20T05:43:10.727Z,78.10
2017-07-20T05:48:12.260Z,76.40
2017-07-20T05:53:13.985Z,75.40
2017-07-20T05:58:15.539Z,73.50
2017-07-20T06:03:17.110Z,72.80
2017-07-20T06:08:18.771Z,72.20
2017-07-20T06:13:21.285Z,73.10
2017-07-20T06:18:22.963Z,74.90
2017-07-20T06:23:25.250Z,73.70
2017-07-20T06:28:26.899Z,76.30
2017-07-20T06:33:28.565Z,78.70
2017-07-20T06:38:31.270Z,80.10
2017-07-20T06:43:32.945Z,79.20
2017-07-20T06:48:34.607Z,80.00
2017-07-20T06:53:37.111Z,79.40
2017-07-20T06:58:38.648Z,79.70
2017-07-20T07:03:41.459Z,80.00
2017-07-20T07:08:44.275Z,81.30
2017-07-20T07:13:46.309Z,81.20
2017-07-20T07:18:48.054Z,80.60
2017-07-20T07:23:49.599Z,81.40
2017-07-20T07:28:51.195Z,81.60
2017-07-20T07:33:52.868Z,82.50
2017-07-20T07:38:54.412Z,81.00
2017-07-20T07:43:56.538Z,80.90
2017-07-20T07:48:58.164Z,81.90
2017-07-20T07:53:59.836Z,81.10
2017-07-20T07:59:01.538Z,81.60
2017-07-20T08:04:04.260Z,82.90
2017-07-20T08:09:05.908Z,80.60
2017-07-20T08:14:07.556Z,77.10
2017-07-20T08:19:09.252Z,69.70
2017-07-20T08:24:11.421Z,74.60
2017-07-20T08:29:12.979Z,70.60
2017-07-20T08:34:14.681Z,71.30
2017-07-20T08:39:16.827Z,72.10
2017-07-20T08:44:18.506Z,73.10
2017-07-20T08:49:20.192Z,71.40
2017-07-20T08:54:21.886Z,68.40
2017-07-20T08:59:23.560Z,66.70
2017-07-20T09:04:25.816Z,75.90
2017-07-20T09:09:27.488Z,77.20
2017-07-20T09:14:30.190Z,75.90
2017-07-20T09:19:31.786Z,76.70
2017-07-20T09:24:33.431Z,76.20
2017-07-20T09:29:35.551Z,76.70
2017-07-20T09:34:37.091Z,77.90
2017-07-20T09:39:38.664Z,77.00
2017-07-20T09:44:40.335Z,77.10
2017-07-20T09:49:42.025Z,76.60
2017-07-20T09:54:43.675Z,77.10
2017-07-20T09:59:45.994Z,76.60
2017-07-20T10:04:47.531Z,80.60
2017-07-20T10:09:49.126Z,79.30
2017-07-20T10:14:50.798Z,88.20
2017-07-20T10:19:52.936Z,91.40
2017-07-20T10:24:55.342Z,99.90
2017-07-20T10:29:56.875Z,99.90
2017-07-20T10:34:58.926Z,99.90
2017-07-20T10:40:01.210Z,91.90
2017-07-20T10:45:02.883Z,94.80
2017-07-20T10:50:04.541Z,99.00
2017-07-20T10:55:06.081Z,99.90
2017-07-20T11:00:08.500Z,99.90
2017-07-20T11:05:10.039Z,99.90
2017-07-20T11:10:11.759Z,99.90
2017-07-20T11:15:13.796Z,99.90
2017-07-20T11:20:16.133Z,99.90
2017-07-20T11:25:18.247Z,99.90
2017-07-20T11:30:19.856Z,99.90
2017-07-20T11:35:21.557Z,99.90
2017-07-20T11:40:23.199Z,99.90
2017-07-20T11:45:24.902Z,99.90
2017-07-20T11:50:27.192Z,99.90
2017-07-20T11:55:28.831Z,99.90
2017-07-20T12:00:31.090Z,99.90
2017-07-20T12:05:33.199Z,99.90
2017-07-20T12:10:35.519Z,99.90
2017-07-20T12:15:37.175Z,99.90
2017-07-20T12:20:38.848Z,99.90
2017-07-20T12:25:40.397Z,99.90
2017-07-20T12:30:42.641Z,99.90
2017-07-20T12:35:44.394Z,99.90
2017-07-20T12:40:46.068Z,93.80
2017-07-20T12:45:47.743Z,95.60
2017-07-20T12:50:49.284Z,93.30
2017-07-20T12:55:50.881Z,94.50
2017-07-20T13:00:52.420Z,92.40
2017-07-20T13:05:54.022Z,92.90
2017-07-20T13:10:56.309Z,89.80
2017-07-20T13:15:58.597Z,84.50
2017-07-20T13:21:00.839Z,86.70
2017-07-20T13:26:02.557Z,82.50
2017-07-20T13:31:04.843Z,82.10
2017-07-20T13:36:06.492Z,77.70
2017-07-20T13:41:08.020Z,76.00
2017-07-20T13:46:10.153Z,75.90
2017-07-20T13:51:12.564Z,73.10
2017-07-20T13:56:14.232Z,72.50
2017-07-20T14:01:16.362Z,75.00
2017-07-20T14:06:19.263Z,72.20
2017-07-20T14:11:20.863Z,72.50
2017-07-20T14:16:23.040Z,72.60
2017-07-20T14:21:25.238Z,74.00
2017-07-20T14:26:27.005Z,75.90
2017-07-20T14:31:28.705Z,88.80
2017-07-20T14:36:30.378Z,91.70
2017-07-20T14:41:32.876Z,93.30
2017-07-20T14:46:34.543Z,91.20
2017-07-20T14:51:36.693Z,84.50
2017-07-20T14:56:39.118Z,80.00
2017-07-20T15:01:42.594Z,80.00
2017-07-20T15:06:44.212Z,79.50
2017-07-20T15:11:46.571Z,75.40
2017-07-20T15:16:48.235Z,74.10
2017-07-20T15:21:50.580Z,69.70
2017-07-20T15:26:52.228Z,68.70
2017-07-20T15:31:54.918Z,69.30
2017-07-20T15:36:56.596Z,65.80
2017-07-20T15:41:58.192Z,60.30
2017-07-20T15:46:59.736Z,57.30
2017-07-20T15:52:01.392Z,54.20
2017-07-20T15:57:02.941Z,52.30
2017-07-20T16:02:06.574Z,50.00
2017-07-20T16:07:08.736Z,50.00
2017-07-20T16:12:11.173Z,51.90
2017-07-20T16:17:12.851Z,51.90
2017-07-20T16:22:15.044Z,51.90
2017-07-20T16:27:16.781Z,51.10
2017-07-20T16:32:18.484Z,52.10
2017-07-20T16:37:20.135Z,53.10
2017-07-20T16:42:21.755Z,53.70
2017-07-20T16:47:23.501Z,54.50
2017-07-20T16:52:25.148Z,56.00
2017-07-20T16:57:26.845Z,59.80
2017-07-20T17:02:28.499Z,61.30
2017-07-20T17:07:30.170Z,62.20
2017-07-20T17:12:32.886Z,61.70
2017-07-20T17:17:34.537Z,61.90
2017-07-20T17:22:36.210Z,62.40
2017-07-20T17:27:37.903Z,60.90
2017-07-20T17:32:39.577Z,60.40
2017-07-20T17:37:41.437Z,59.90
2017-07-20T17:42:43.103Z,60.20
2017-07-20T17:47:45.598Z,60.30
2017-07-20T17:52:47.393Z,60.10
2017-07-20T17:57:49.044Z,60.30
2017-07-20T18:02:50.741Z,62.40
2017-07-20T18:07:52.388Z,63.10
2017-07-20T18:12:54.084Z,64.00
2017-07-20T18:17:56.549Z,64.60
2017-07-20T18:22:58.248Z,60.90
2017-07-20T18:27:59.900Z,60.70
2017-07-20T18:33:02.517Z,58.90
2017-07-20T18:38:04.169Z,54.60
2017-07-20T18:43:05.940Z,53.00
2017-07-20T18:48:07.640Z,53.00
2017-07-20T18:53:09.517Z,53.20
2017-07-20T18:58:11.268Z,54.70
2017-07-20T19:03:12.936Z,54.00
2017-07-20T19:08:14.664Z,53.90
2017-07-20T19:13:16.309Z,54.70
2017-07-20T19:18:17.900Z,55.00
2017-07-20T19:23:21.268Z,55.60
2017-07-20T19:28:22.966Z,55.30
2017-07-20T19:33:24.638Z,61.70
2017-07-20T19:38:28.844Z,70.10
2017-07-20T19:43:30.631Z,75.50
2017-07-20T19:48:35.401Z,78.30
2017-07-20T19:53:37.371Z,78.60
2017-07-20T19:58:39.045Z,77.10
2017-07-20T20:03:41.161Z,76.30
2017-07-20T20:08:43.721Z,79.20
2017-07-20T20:13:48.790Z,78.00
2017-07-20T20:18:51.368Z,78.20
2017-07-20T20:23:53.143Z,77.30
2017-07-20T20:28:54.815Z,78.30
2017-07-20T20:33:56.491Z,78.70
2017-07-20T20:38:58.120Z,80.30
2017-07-20T20:44:01.106Z,78.20
2017-07-20T20:49:02.892Z,78.10
2017-07-20T20:54:05.541Z,75.50
2017-07-20T20:59:07.759Z,75.50
2017-07-20T21:04:10.519Z,84.40
2017-07-20T21:09:12.191Z,86.50
2017-07-20T21:14:14.418Z,90.30
2017-07-20T21:19:16.029Z,93.50
2017-07-20T21:24:17.696Z,94.30
2017-07-20T21:29:20.013Z,94.70
2017-07-20T21:34:21.785Z,95.30
2017-07-20T21:39:23.764Z,95.50
2017-07-20T21:44:25.412Z,96.30
2017-07-20T21:49:28.008Z,97.00
2017-07-20T21:54:30.169Z,96.60
2017-07-20T21:59:32.606Z,98.30
2017-07-20T22:04:34.382Z,98.30
2017-07-20T22:09:38.409Z,99.00
2017-07-20T22:14:40.156Z,98.10
2017-07-20T22:19:41.857Z,99.40
2017-07-20T22:24:43.529Z,99.50
2017-07-20T22:29:45.171Z,99.90
2017-07-20T22:34:46.875Z,99.90
2017-07-20T22:39:48.569Z,99.90
2017-07-20T22:44:50.203Z,99.90
2017-07-20T22:49:51.791Z,99.90
2017-07-20T22:54:53.464Z,99.90
2017-07-20T22:59:56.159Z,99.90
2017-07-20T23:04:57.935Z,99.90
2017-07-20T23:10:00.220Z,97.20
2017-07-20T23:15:02.295Z,95.10
2017-07-20T23:20:03.948Z,93.30
2017-07-20T23:25:05.649Z,95.50
2017-07-20T23:30:07.733Z,94.40
2017-07-20T23:35:09.404Z,96.30
2017-07-20T23:40:12.130Z,98.50
2017-07-20T23:45:13.774Z,99.00
2017-07-20T23:50:15.548Z,96.20
2017-07-20T23:55:17.192Z,93.80
